CFG1RT EDDS-EDDH
Flight info
| Callsign | CFG1RT |
|---|---|
| Flight time | 0h 50m |
| Altitude | 33000 |
| Route | OKIBA4B OKIBA N851 RIMKI Z99 LOHRE DCT MASEK DCT ELNAT/N0414F320 P605 NOLGO NOLGO6A |
| Aircraft | A320/M-SDE3FGHIRWY/LB1 |
Departure
| Time | 2026-05-05 16:19 |
|---|---|
| Airport | Stuttgart Airport (EDDS) |
Arrival
| Time | 2026-05-05 17:09 |
|---|---|
| Airport | Hamburg Helmut Schmidt Airport (EDDH) |
| Time | Latitude | Longitude | Altitude | Speed | Heading |
|---|---|---|---|---|---|
| 2026-05-05 15:43 | 48.68870 | 9.19288 | 1316 ft | 0 kts | 344° |
| 2026-05-05 16:02 | 48.68864 | 9.19291 | 1315 ft | 2 kts | 344° |
| 2026-05-05 16:02 | 48.68845 | 9.19299 | 1315 ft | 3 kts | 344° |
| 2026-05-05 16:02 | 48.68826 | 9.19307 | 1315 ft | 3 kts | 345° |
| 2026-05-05 16:02 | 48.68808 | 9.19311 | 1315 ft | 3 kts | 18° |
| 2026-05-05 16:03 | 48.68793 | 9.19297 | 1314 ft | 3 kts | 59° |
| 2026-05-05 16:03 | 48.68787 | 9.19278 | 1315 ft | 1 kts | 74° |
| 2026-05-05 16:03 | 48.68787 | 9.19277 | 1315 ft | 0 kts | 74° |
| 2026-05-05 16:06 | 48.68790 | 9.19296 | 1314 ft | 3 kts | 74° |
| 2026-05-05 16:06 | 48.68796 | 9.19329 | 1314 ft | 3 kts | 74° |
| 2026-05-05 16:06 | 48.68808 | 9.19392 | 1313 ft | 10 kts | 74° |
| 2026-05-05 16:06 | 48.68835 | 9.19529 | 1311 ft | 17 kts | 74° |
| 2026-05-05 16:07 | 48.68866 | 9.19693 | 1308 ft | 14 kts | 74° |
| 2026-05-05 16:07 | 48.68889 | 9.19840 | 1304 ft | 14 kts | 93° |
| 2026-05-05 16:07 | 48.68810 | 9.19924 | 1296 ft | 16 kts | 142° |
| 2026-05-05 16:07 | 48.68790 | 9.19959 | 1294 ft | 1 kts | 118° |
| 2026-05-05 16:08 | 48.68807 | 9.19992 | 1294 ft | 9 kts | 46° |
| 2026-05-05 16:08 | 48.68853 | 9.20108 | 1293 ft | 15 kts | 71° |
| 2026-05-05 16:08 | 48.68885 | 9.20275 | 1289 ft | 18 kts | 75° |
| 2026-05-05 16:08 | 48.68924 | 9.20484 | 1283 ft | 23 kts | 74° |
| 2026-05-05 16:09 | 48.68971 | 9.20736 | 1277 ft | 27 kts | 73° |
| 2026-05-05 16:09 | 48.69026 | 9.21020 | 1270 ft | 29 kts | 74° |
| 2026-05-05 16:09 | 48.69084 | 9.21328 | 1263 ft | 32 kts | 74° |
| 2026-05-05 16:09 | 48.69144 | 9.21644 | 1256 ft | 29 kts | 74° |
| 2026-05-05 16:10 | 48.69203 | 9.21950 | 1249 ft | 31 kts | 73° |
| 2026-05-05 16:10 | 48.69261 | 9.22260 | 1245 ft | 27 kts | 74° |
| 2026-05-05 16:10 | 48.69317 | 9.22551 | 1238 ft | 29 kts | 75° |
| 2026-05-05 16:10 | 48.69365 | 9.22804 | 1230 ft | 26 kts | 74° |
| 2026-05-05 16:11 | 48.69417 | 9.23081 | 1225 ft | 28 kts | 73° |
| 2026-05-05 16:11 | 48.69543 | 9.23752 | 1263 ft | 11 kts | 72° |
| 2026-05-05 16:12 | 48.69571 | 9.23890 | 1275 ft | 18 kts | 75° |
| 2026-05-05 16:12 | 48.69605 | 9.24170 | 1274 ft | 8 kts | 115° |
| 2026-05-05 16:13 | 48.69602 | 9.24179 | 1270 ft | 0 kts | 118° |
| 2026-05-05 16:15 | 48.69587 | 9.24220 | 1266 ft | 9 kts | 119° |
| 2026-05-05 16:15 | 48.69541 | 9.24298 | 1251 ft | 0 kts | 158° |
| 2026-05-05 16:16 | 48.69538 | 9.24300 | 1250 ft | 0 kts | 159° |
| 2026-05-05 16:17 | 48.69451 | 9.24337 | 1207 ft | 16 kts | 168° |
| 2026-05-05 16:17 | 48.69410 | 9.24344 | 1190 ft | 5 kts | 184° |
| 2026-05-05 16:18 | 48.69392 | 9.24320 | 1191 ft | 0 kts | 243° |
| 2026-05-05 16:18 | 48.69357 | 9.24151 | 1194 ft | 50 kts | 254° |
| 2026-05-05 16:18 | 48.68917 | 9.21790 | 1318 ft | 163 kts | 255° |
| 2026-05-05 16:19 | 48.68623 | 9.20157 | 2054 ft | 160 kts | 255° |
| 2026-05-05 16:19 | 48.68331 | 9.18532 | 2782 ft | 163 kts | 254° |
| 2026-05-05 16:19 | 48.67784 | 9.15711 | 3572 ft | 182 kts | 252° |
| 2026-05-05 16:20 | 48.67002 | 9.11546 | 4189 ft | 228 kts | 265° |
| 2026-05-05 16:20 | 48.68408 | 9.07141 | 5633 ft | 250 kts | 314° |
| 2026-05-05 16:21 | 48.71862 | 9.05163 | 5836 ft | 278 kts | 341° |
| 2026-05-05 16:22 | 48.77569 | 9.05990 | 5839 ft | 290 kts | 16° |
| 2026-05-05 16:22 | 48.81470 | 9.07354 | 5838 ft | 288 kts | 8° |
| 2026-05-05 16:23 | 48.85498 | 9.08444 | 7287 ft | 295 kts | 8° |
| 2026-05-05 16:23 | 48.87506 | 9.09030 | 8139 ft | 299 kts | 8° |
| 2026-05-05 16:23 | 48.91631 | 9.10317 | 9810 ft | 306 kts | 9° |
| 2026-05-05 16:24 | 48.93776 | 9.11006 | 10217 ft | 326 kts | 9° |
| 2026-05-05 16:24 | 48.96077 | 9.11747 | 10454 ft | 349 kts | 11° |
| 2026-05-05 16:24 | 49.01106 | 9.13389 | 11168 ft | 381 kts | 11° |
| 2026-05-05 16:25 | 49.03719 | 9.14251 | 11849 ft | 385 kts | 11° |
| 2026-05-05 16:25 | 49.09018 | 9.16004 | 13250 ft | 393 kts | 11° |
| 2026-05-05 16:25 | 49.11699 | 9.16889 | 13905 ft | 396 kts | 11° |
| 2026-05-05 16:26 | 49.17134 | 9.18454 | 15116 ft | 403 kts | 7° |
| 2026-05-05 16:26 | 49.22723 | 9.19511 | 16287 ft | 410 kts | 5° |
| 2026-05-05 16:27 | 49.25573 | 9.20001 | 16875 ft | 413 kts | 6° |
| 2026-05-05 16:27 | 49.28440 | 9.20537 | 17471 ft | 417 kts | 6° |
| 2026-05-05 16:27 | 49.31337 | 9.21127 | 18067 ft | 421 kts | 7° |
| 2026-05-05 16:27 | 49.34254 | 9.21756 | 18586 ft | 424 kts | 7° |
| 2026-05-05 16:28 | 49.37182 | 9.22407 | 19078 ft | 427 kts | 8° |
| 2026-05-05 16:28 | 49.40141 | 9.23062 | 19570 ft | 431 kts | 8° |
| 2026-05-05 16:28 | 49.43121 | 9.23719 | 20058 ft | 434 kts | 8° |
| 2026-05-05 16:28 | 49.46081 | 9.24368 | 20543 ft | 436 kts | 8° |
| 2026-05-05 16:29 | 49.49104 | 9.25028 | 21049 ft | 439 kts | 8° |
| 2026-05-05 16:29 | 49.52153 | 9.25690 | 21547 ft | 442 kts | 8° |
| 2026-05-05 16:29 | 49.55208 | 9.26350 | 22009 ft | 444 kts | 8° |
| 2026-05-05 16:29 | 49.58278 | 9.27012 | 22451 ft | 446 kts | 8° |
| 2026-05-05 16:30 | 49.61331 | 9.27672 | 22861 ft | 449 kts | 8° |
| 2026-05-05 16:30 | 49.64442 | 9.28348 | 23250 ft | 452 kts | 8° |
| 2026-05-05 16:30 | 49.67584 | 9.29033 | 23601 ft | 455 kts | 8° |
| 2026-05-05 16:30 | 49.70736 | 9.29718 | 23936 ft | 457 kts | 8° |
| 2026-05-05 16:31 | 49.73854 | 9.30398 | 24259 ft | 459 kts | 9° |
| 2026-05-05 16:31 | 49.77030 | 9.31092 | 24592 ft | 461 kts | 9° |
| 2026-05-05 16:31 | 49.80229 | 9.31789 | 24910 ft | 463 kts | 9° |
| 2026-05-05 16:31 | 49.83398 | 9.32483 | 25211 ft | 466 kts | 9° |
| 2026-05-05 16:32 | 49.86634 | 9.33198 | 25501 ft | 468 kts | 9° |
| 2026-05-05 16:32 | 49.89869 | 9.33917 | 25818 ft | 470 kts | 9° |
| 2026-05-05 16:32 | 49.93126 | 9.34642 | 26149 ft | 473 kts | 9° |
| 2026-05-05 16:32 | 49.96388 | 9.35368 | 26442 ft | 475 kts | 9° |
| 2026-05-05 16:33 | 49.99625 | 9.36084 | 26706 ft | 477 kts | 9° |
| 2026-05-05 16:33 | 50.02927 | 9.36809 | 26960 ft | 479 kts | 9° |
| 2026-05-05 16:33 | 50.06182 | 9.37519 | 27957 ft | 462 kts | 8° |
| 2026-05-05 16:33 | 50.09302 | 9.38201 | 29247 ft | 442 kts | 8° |
| 2026-05-05 16:34 | 50.12258 | 9.38847 | 30407 ft | 425 kts | 8° |
| 2026-05-05 16:34 | 50.15203 | 9.39498 | 30706 ft | 429 kts | 9° |
| 2026-05-05 16:34 | 50.18169 | 9.40164 | 30929 ft | 433 kts | 9° |
| 2026-05-05 16:34 | 50.21186 | 9.40847 | 31140 ft | 438 kts | 9° |
| 2026-05-05 16:35 | 50.24234 | 9.41538 | 31284 ft | 445 kts | 9° |
| 2026-05-05 16:35 | 50.27319 | 9.42234 | 31409 ft | 451 kts | 8° |
| 2026-05-05 16:35 | 50.30424 | 9.42932 | 31540 ft | 457 kts | 8° |
| 2026-05-05 16:35 | 50.33587 | 9.43639 | 31671 ft | 463 kts | 8° |
| 2026-05-05 16:36 | 50.36796 | 9.44356 | 31803 ft | 468 kts | 8° |
| 2026-05-05 16:36 | 50.40036 | 9.45084 | 31935 ft | 473 kts | 8° |
| 2026-05-05 16:36 | 50.43323 | 9.45822 | 32058 ft | 477 kts | 8° |
| 2026-05-05 16:36 | 50.46622 | 9.46560 | 32213 ft | 480 kts | 8° |
| 2026-05-05 16:37 | 50.49901 | 9.47293 | 32438 ft | 480 kts | 8° |
| 2026-05-05 16:37 | 50.53202 | 9.48031 | 32776 ft | 478 kts | 8° |
| 2026-05-05 16:37 | 50.56513 | 9.48780 | 33110 ft | 476 kts | 8° |
| 2026-05-05 16:37 | 50.59788 | 9.49525 | 33415 ft | 474 kts | 8° |
| 2026-05-05 16:38 | 50.63011 | 9.50260 | 33695 ft | 473 kts | 8° |
| 2026-05-05 16:38 | 50.66283 | 9.51009 | 33963 ft | 473 kts | 8° |
| 2026-05-05 16:38 | 50.69539 | 9.51753 | 34194 ft | 472 kts | 8° |
| 2026-05-05 16:38 | 50.72801 | 9.52496 | 34432 ft | 472 kts | 8° |
| 2026-05-05 16:39 | 50.76021 | 9.53227 | 34657 ft | 472 kts | 7° |
| 2026-05-05 16:39 | 50.79278 | 9.53968 | 34776 ft | 474 kts | 7° |
| 2026-05-05 16:39 | 50.85839 | 9.55478 | 34802 ft | 476 kts | 8° |
| 2026-05-05 16:40 | 50.92371 | 9.56984 | 34800 ft | 476 kts | 7° |
| 2026-05-05 16:40 | 50.98963 | 9.58501 | 34800 ft | 482 kts | 7° |
| 2026-05-05 16:41 | 51.05638 | 9.60040 | 34805 ft | 484 kts | 7° |
| 2026-05-05 16:41 | 51.12282 | 9.61571 | 34806 ft | 485 kts | 7° |
| 2026-05-05 16:42 | 51.18961 | 9.63143 | 34813 ft | 485 kts | 8° |
| 2026-05-05 16:42 | 51.25629 | 9.64961 | 34807 ft | 486 kts | 9° |
| 2026-05-05 16:43 | 51.32241 | 9.66872 | 34807 ft | 486 kts | 9° |
| 2026-05-05 16:43 | 51.38916 | 9.68753 | 34801 ft | 486 kts | 8° |
| 2026-05-05 16:44 | 51.45612 | 9.70595 | 34806 ft | 487 kts | 8° |
| 2026-05-05 16:44 | 51.52247 | 9.72416 | 34809 ft | 487 kts | 8° |
| 2026-05-05 16:45 | 51.58954 | 9.74271 | 34815 ft | 488 kts | 8° |
| 2026-05-05 16:45 | 51.65649 | 9.76145 | 34834 ft | 488 kts | 8° |
| 2026-05-05 16:46 | 51.72318 | 9.78011 | 34842 ft | 489 kts | 8° |
| 2026-05-05 16:46 | 51.79030 | 9.79902 | 34846 ft | 489 kts | 8° |
| 2026-05-05 16:47 | 51.85739 | 9.81794 | 34848 ft | 489 kts | 8° |
| 2026-05-05 16:47 | 51.92413 | 9.83681 | 34861 ft | 489 kts | 7° |
| 2026-05-05 16:48 | 51.99124 | 9.85587 | 34859 ft | 490 kts | 7° |
| 2026-05-05 16:48 | 52.05858 | 9.87506 | 34858 ft | 490 kts | 7° |
| 2026-05-05 16:49 | 52.09218 | 9.88463 | 34712 ft | 492 kts | 7° |
| 2026-05-05 16:49 | 52.12589 | 9.89427 | 34212 ft | 491 kts | 7° |
| 2026-05-05 16:49 | 52.15916 | 9.90380 | 33736 ft | 491 kts | 7° |
| 2026-05-05 16:49 | 52.19293 | 9.91347 | 33175 ft | 492 kts | 7° |
| 2026-05-05 16:50 | 52.22671 | 9.92312 | 32643 ft | 492 kts | 7° |
| 2026-05-05 16:50 | 52.26033 | 9.93277 | 32101 ft | 485 kts | 7° |
| 2026-05-05 16:50 | 52.29315 | 9.94227 | 31589 ft | 478 kts | 7° |
| 2026-05-05 16:50 | 52.32585 | 9.95176 | 30946 ft | 475 kts | 7° |
| 2026-05-05 16:51 | 52.35843 | 9.96120 | 30272 ft | 473 kts | 7° |
| 2026-05-05 16:51 | 52.39078 | 9.97052 | 29499 ft | 471 kts | 7° |
| 2026-05-05 16:51 | 52.42268 | 9.97972 | 28697 ft | 469 kts | 7° |
| 2026-05-05 16:51 | 52.45482 | 9.98902 | 27892 ft | 467 kts | 7° |
| 2026-05-05 16:52 | 52.48699 | 9.99833 | 26991 ft | 468 kts | 8° |
| 2026-05-05 16:52 | 52.51905 | 10.00763 | 26127 ft | 468 kts | 8° |
| 2026-05-05 16:52 | 52.55114 | 10.01718 | 25282 ft | 468 kts | 10° |
| 2026-05-05 16:52 | 52.58264 | 10.03056 | 24454 ft | 467 kts | 14° |
| 2026-05-05 16:53 | 52.61370 | 10.04449 | 23679 ft | 466 kts | 13° |
| 2026-05-05 16:53 | 52.64509 | 10.05857 | 22772 ft | 464 kts | 14° |
| 2026-05-05 16:53 | 52.67622 | 10.07254 | 21858 ft | 462 kts | 14° |
| 2026-05-05 16:53 | 52.70684 | 10.08628 | 20974 ft | 460 kts | 14° |
| 2026-05-05 16:54 | 52.73772 | 10.10014 | 20145 ft | 458 kts | 14° |
| 2026-05-05 16:54 | 52.76857 | 10.11264 | 19358 ft | 454 kts | 9° |
| 2026-05-05 16:54 | 52.79993 | 10.11579 | 18591 ft | 450 kts | 355° |
| 2026-05-05 16:54 | 52.83050 | 10.10611 | 17803 ft | 444 kts | 340° |
| 2026-05-05 16:55 | 52.85828 | 10.08572 | 16939 ft | 438 kts | 332° |
| 2026-05-05 16:55 | 52.88528 | 10.06352 | 15800 ft | 425 kts | 332° |
| 2026-05-05 16:55 | 52.91135 | 10.04180 | 14711 ft | 414 kts | 332° |
| 2026-05-05 16:55 | 52.93682 | 10.02048 | 13651 ft | 404 kts | 332° |
| 2026-05-05 16:56 | 52.96164 | 9.99972 | 12536 ft | 394 kts | 332° |
| 2026-05-05 16:56 | 52.98530 | 9.97996 | 11766 ft | 377 kts | 332° |
| 2026-05-05 16:56 | 53.00818 | 9.96092 | 11354 ft | 354 kts | 332° |
| 2026-05-05 16:56 | 53.02944 | 9.94324 | 11127 ft | 330 kts | 332° |
| 2026-05-05 16:57 | 53.04966 | 9.92637 | 10892 ft | 316 kts | 332° |
| 2026-05-05 16:57 | 53.06888 | 9.91028 | 10605 ft | 301 kts | 331° |
| 2026-05-05 16:57 | 53.08691 | 9.89516 | 10315 ft | 287 kts | 331° |
| 2026-05-05 16:57 | 53.10450 | 9.88040 | 10072 ft | 280 kts | 330° |
| 2026-05-05 16:58 | 53.12164 | 9.86604 | 9924 ft | 272 kts | 331° |
| 2026-05-05 16:58 | 53.13822 | 9.85216 | 9895 ft | 260 kts | 330° |
| 2026-05-05 16:58 | 53.15424 | 9.83871 | 9900 ft | 256 kts | 331° |
| 2026-05-05 16:58 | 53.17016 | 9.82530 | 9905 ft | 256 kts | 330° |
| 2026-05-05 16:59 | 53.18584 | 9.81208 | 9906 ft | 256 kts | 330° |
| 2026-05-05 16:59 | 53.20175 | 9.79867 | 9895 ft | 256 kts | 331° |
| 2026-05-05 16:59 | 53.21769 | 9.78524 | 9769 ft | 255 kts | 330° |
| 2026-05-05 16:59 | 53.23339 | 9.77197 | 9476 ft | 253 kts | 330° |
| 2026-05-05 17:00 | 53.24895 | 9.75881 | 9114 ft | 252 kts | 330° |
| 2026-05-05 17:00 | 53.26461 | 9.74555 | 8742 ft | 252 kts | 331° |
| 2026-05-05 17:00 | 53.28023 | 9.73231 | 8379 ft | 251 kts | 332° |
| 2026-05-05 17:00 | 53.29577 | 9.71914 | 8021 ft | 250 kts | 331° |
| 2026-05-05 17:01 | 53.31127 | 9.70600 | 7665 ft | 249 kts | 332° |
| 2026-05-05 17:01 | 53.32669 | 9.69293 | 7316 ft | 247 kts | 331° |
| 2026-05-05 17:01 | 53.34182 | 9.67993 | 6975 ft | 246 kts | 331° |
| 2026-05-05 17:01 | 53.35702 | 9.66667 | 6584 ft | 246 kts | 331° |
| 2026-05-05 17:02 | 53.37222 | 9.65329 | 6190 ft | 247 kts | 332° |
| 2026-05-05 17:02 | 53.38747 | 9.63988 | 5774 ft | 247 kts | 335° |
| 2026-05-05 17:02 | 53.40413 | 9.63398 | 5361 ft | 247 kts | 5° |
| 2026-05-05 17:02 | 53.42048 | 9.64165 | 5070 ft | 242 kts | 22° |
| 2026-05-05 17:03 | 53.43579 | 9.65285 | 4795 ft | 237 kts | 24° |
| 2026-05-05 17:03 | 53.45048 | 9.66400 | 4523 ft | 233 kts | 24° |
| 2026-05-05 17:03 | 53.46515 | 9.67512 | 4236 ft | 229 kts | 24° |
| 2026-05-05 17:03 | 53.47931 | 9.68683 | 3948 ft | 224 kts | 37° |
| 2026-05-05 17:04 | 53.48989 | 9.70539 | 3673 ft | 217 kts | 50° |
| 2026-05-05 17:04 | 53.49942 | 9.72470 | 3464 ft | 209 kts | 50° |
| 2026-05-05 17:04 | 53.50847 | 9.74291 | 3324 ft | 195 kts | 50° |
| 2026-05-05 17:04 | 53.51685 | 9.75972 | 3249 ft | 186 kts | 50° |
| 2026-05-05 17:05 | 53.52505 | 9.77615 | 3005 ft | 181 kts | 50° |
| 2026-05-05 17:05 | 53.53309 | 9.79227 | 2771 ft | 178 kts | 50° |
| 2026-05-05 17:05 | 53.54098 | 9.80811 | 2540 ft | 175 kts | 50° |
| 2026-05-05 17:05 | 53.54871 | 9.82363 | 2289 ft | 170 kts | 50° |
| 2026-05-05 17:06 | 53.55601 | 9.83829 | 2078 ft | 156 kts | 50° |
| 2026-05-05 17:06 | 53.56273 | 9.85181 | 1860 ft | 145 kts | 50° |
| 2026-05-05 17:06 | 53.56891 | 9.86423 | 1675 ft | 136 kts | 50° |
| 2026-05-05 17:06 | 53.57478 | 9.87606 | 1487 ft | 129 kts | 50° |
| 2026-05-05 17:07 | 53.58053 | 9.88763 | 1313 ft | 130 kts | 51° |
| 2026-05-05 17:07 | 53.58437 | 9.89537 | 1194 ft | 130 kts | 50° |
| 2026-05-05 17:07 | 53.59022 | 9.90717 | 986 ft | 132 kts | 51° |
| 2026-05-05 17:07 | 53.59793 | 9.92281 | 781 ft | 131 kts | 50° |
| 2026-05-05 17:08 | 53.60190 | 9.93075 | 636 ft | 130 kts | 50° |
| 2026-05-05 17:08 | 53.60767 | 9.94227 | 449 ft | 131 kts | 50° |
| 2026-05-05 17:08 | 53.61348 | 9.95408 | 281 ft | 131 kts | 50° |
| 2026-05-05 17:08 | 53.61932 | 9.96593 | 104 ft | 131 kts | 51° |
| 2026-05-05 17:09 | 53.62484 | 9.97705 | 47 ft | 108 kts | 50° |
| 2026-05-05 17:09 | 53.62880 | 9.98508 | 49 ft | 77 kts | 50° |
| 2026-05-05 17:09 | 53.63157 | 9.99069 | 51 ft | 52 kts | 49° |
| 2026-05-05 17:09 | 53.63289 | 9.99388 | 51 ft | 26 kts | 75° |
| 2026-05-05 17:10 | 53.63286 | 9.99581 | 50 ft | 9 kts | 101° |
| 2026-05-05 17:10 | 53.63281 | 9.99621 | 50 ft | 0 kts | 101° |
| 2026-05-05 17:11 | 53.63280 | 9.99628 | 50 ft | 4 kts | 101° |
| 2026-05-05 17:11 | 53.63274 | 9.99677 | 50 ft | 4 kts | 101° |
| 2026-05-05 17:11 | 53.63283 | 9.99769 | 50 ft | 18 kts | 65° |
| 2026-05-05 17:12 | 53.63359 | 9.99926 | 50 ft | 18 kts | 49° |
| 2026-05-05 17:12 | 53.63428 | 10.00079 | 51 ft | 14 kts | 72° |
| 2026-05-05 17:12 | 53.63386 | 10.00217 | 49 ft | 14 kts | 143° |
| 2026-05-05 17:12 | 53.63320 | 10.00235 | 51 ft | 7 kts | 178° |
| 2026-05-05 17:13 | 53.63291 | 10.00257 | 51 ft | 3 kts | 107° |
| 2026-05-05 17:13 | 53.63292 | 10.00288 | 51 ft | 3 kts | 87° |
| 2026-05-05 17:13 | 53.63293 | 10.00322 | 51 ft | 2 kts | 87° |
| 2026-05-05 17:13 | 53.63294 | 10.00352 | 51 ft | 2 kts | 86° |
| 2026-05-05 17:14 | 53.63294 | 10.00355 | 51 ft | 0 kts | 86° |